createdAt,value
2022-10-10T00:00:40.390Z,8.02
2022-10-10T00:02:43.668Z,8.00
2022-10-10T00:04:46.958Z,7.97
2022-10-10T00:06:50.328Z,7.95
2022-10-10T00:08:55.153Z,7.93
2022-10-10T00:10:58.482Z,7.92
2022-10-10T00:13:03.678Z,7.91
2022-10-10T00:15:07.927Z,7.91
2022-10-10T00:17:11.281Z,7.91
2022-10-10T00:19:14.562Z,7.88
2022-10-10T00:21:17.874Z,7.87
2022-10-10T00:23:21.873Z,7.85
2022-10-10T00:25:25.395Z,7.87
2022-10-10T00:27:28.613Z,7.86
2022-10-10T00:29:33.360Z,7.87
2022-10-10T00:31:36.719Z,7.87
2022-10-10T00:33:39.993Z,7.87
2022-10-10T00:35:43.719Z,7.88
2022-10-10T00:37:47.030Z,7.87
2022-10-10T00:39:50.609Z,7.87
2022-10-10T00:41:53.873Z,7.89
2022-10-10T00:44:09.260Z,7.88
2022-10-10T00:46:13.945Z,7.88
2022-10-10T00:48:20.016Z,7.89
2022-10-10T00:50:24.886Z,7.88
2022-10-10T00:52:28.140Z,7.87
2022-10-10T00:54:34.572Z,7.86
2022-10-10T00:56:42.942Z,7.85
2022-10-10T00:58:49.344Z,7.85
2022-10-10T01:00:53.932Z,7.83
2022-10-10T01:02:58.526Z,7.84
2022-10-10T01:05:01.897Z,7.84
2022-10-10T01:07:07.644Z,7.85
2022-10-10T01:09:10.961Z,7.85
2022-10-10T01:11:35.591Z,7.86
2022-10-10T01:13:48.168Z,7.88
2022-10-10T01:15:57.366Z,7.86
2022-10-10T01:18:10.470Z,7.86
2022-10-10T01:20:34.326Z,7.85
2022-10-10T01:22:49.618Z,7.87
2022-10-10T01:25:02.343Z,7.87
2022-10-10T01:27:31.213Z,7.83
2022-10-10T01:29:40.420Z,7.82
2022-10-10T01:31:46.700Z,7.82
2022-10-10T01:33:56.111Z,7.82
2022-10-10T01:36:06.625Z,7.80
2022-10-10T01:38:21.356Z,7.79
2022-10-10T01:40:30.523Z,7.81
2022-10-10T01:42:39.656Z,7.82
2022-10-10T01:44:46.770Z,7.82
2022-10-10T01:46:50.004Z,7.84
2022-10-10T01:48:55.976Z,7.84
2022-10-10T01:51:22.013Z,7.82
2022-10-10T01:53:32.158Z,7.82
2022-10-10T01:55:57.438Z,7.82
2022-10-10T01:58:12.041Z,7.81
2022-10-10T02:00:18.647Z,7.81
2022-10-10T02:02:31.115Z,7.81
2022-10-10T02:04:40.034Z,7.77
2022-10-10T02:06:48.849Z,7.76
2022-10-10T02:08:55.409Z,7.74
2022-10-10T02:11:02.594Z,7.74
2022-10-10T02:13:07.382Z,7.74
2022-10-10T02:15:15.635Z,7.75
2022-10-10T02:17:21.499Z,7.73
2022-10-10T02:19:26.695Z,7.73
2022-10-10T02:21:30.977Z,7.73
2022-10-10T02:23:35.859Z,7.74
2022-10-10T02:25:41.304Z,7.75
2022-10-10T02:27:48.144Z,7.76
2022-10-10T02:29:54.902Z,7.76
2022-10-10T02:32:04.591Z,7.76
2022-10-10T02:34:13.404Z,7.75
2022-10-10T02:36:19.047Z,7.75
2022-10-10T02:38:22.901Z,7.75
2022-10-10T02:40:29.699Z,7.76
2022-10-10T02:42:33.399Z,7.76
2022-10-10T02:44:38.373Z,7.75
2022-10-10T02:46:42.255Z,7.76
2022-10-10T02:48:46.046Z,7.77
2022-10-10T02:50:50.811Z,7.78
2022-10-10T02:52:54.140Z,7.78
2022-10-10T02:54:57.585Z,7.77
2022-10-10T02:57:00.800Z,7.78
2022-10-10T02:59:04.040Z,7.78
2022-10-10T03:01:07.650Z,7.82
2022-10-10T03:03:10.884Z,7.82
2022-10-10T03:05:14.362Z,7.82
2022-10-10T03:07:18.996Z,7.82
2022-10-10T03:09:22.271Z,7.82
2022-10-10T03:11:25.476Z,7.83
2022-10-10T03:13:28.906Z,7.84
2022-10-10T03:15:32.114Z,7.84
2022-10-10T03:17:35.307Z,7.83
2022-10-10T03:19:38.693Z,7.83
2022-10-10T03:21:41.875Z,7.84
2022-10-10T03:23:46.597Z,7.83
2022-10-10T03:25:50.297Z,7.82
2022-10-10T03:27:53.617Z,7.84
2022-10-10T03:29:56.757Z,7.87
2022-10-10T03:32:00.074Z,7.89
2022-10-10T03:34:03.370Z,7.89
2022-10-10T03:36:07.041Z,7.91
2022-10-10T03:38:11.709Z,7.92
2022-10-10T03:40:16.489Z,7.92
2022-10-10T03:42:19.784Z,7.93
2022-10-10T03:44:23.129Z,7.91
2022-10-10T03:46:26.609Z,7.91
2022-10-10T03:48:29.845Z,7.92
2022-10-10T03:50:33.207Z,7.91
2022-10-10T03:52:36.596Z,7.90
2022-10-10T03:54:39.800Z,7.89
2022-10-10T03:56:44.605Z,7.88
2022-10-10T03:58:47.898Z,7.88
2022-10-10T04:00:56.042Z,7.87
2022-10-10T04:02:59.437Z,7.86
2022-10-10T04:05:02.629Z,7.85
2022-10-10T04:07:05.954Z,7.85
2022-10-10T04:09:09.265Z,7.84
2022-10-10T04:11:12.580Z,7.84
2022-10-10T04:13:17.318Z,7.83
2022-10-10T04:15:20.657Z,7.82
2022-10-10T04:17:23.892Z,7.81
2022-10-10T04:19:27.329Z,7.80
2022-10-10T04:21:30.525Z,7.78
2022-10-10T04:23:33.927Z,7.77
2022-10-10T04:25:37.223Z,7.77
2022-10-10T04:27:40.558Z,7.74
2022-10-10T04:29:45.141Z,7.74
2022-10-10T04:31:48.516Z,7.75
2022-10-10T04:33:51.850Z,7.74
2022-10-10T04:35:55.192Z,7.75
2022-10-10T04:37:58.402Z,7.76
2022-10-10T04:40:01.935Z,7.75
2022-10-10T04:42:05.197Z,7.74
2022-10-10T04:44:08.588Z,7.75
2022-10-10T04:46:13.335Z,7.76
2022-10-10T04:48:16.647Z,7.78
2022-10-10T04:50:19.961Z,7.79
2022-10-10T04:52:23.253Z,7.79
2022-10-10T04:54:26.502Z,7.76
2022-10-10T04:56:29.751Z,7.75
2022-10-10T04:58:33.009Z,7.72
2022-10-10T05:00:36.222Z,7.71
2022-10-10T05:02:40.866Z,7.71
2022-10-10T05:04:44.145Z,7.70
2022-10-10T05:06:47.340Z,7.70
2022-10-10T05:08:50.560Z,7.69
2022-10-10T05:10:54.783Z,7.67
2022-10-10T05:12:58.051Z,7.64
2022-10-10T05:15:01.448Z,7.63
2022-10-10T05:17:04.999Z,7.63
2022-10-10T05:19:09.659Z,7.65
2022-10-10T05:21:13.100Z,7.65
2022-10-10T05:23:16.867Z,7.66
2022-10-10T05:25:20.330Z,7.65
2022-10-10T05:27:23.553Z,7.66
2022-10-10T05:29:26.896Z,7.66
2022-10-10T05:31:30.596Z,7.65
2022-10-10T05:33:34.419Z,7.66
2022-10-10T05:35:39.199Z,7.65
2022-10-10T05:37:42.343Z,7.63
2022-10-10T05:39:45.737Z,7.65
2022-10-10T05:41:48.964Z,7.67
2022-10-10T05:43:52.271Z,7.66
2022-10-10T05:45:55.683Z,7.66
2022-10-10T05:47:58.933Z,7.65
2022-10-10T05:50:02.104Z,7.63
2022-10-10T05:52:06.742Z,7.65
2022-10-10T05:54:10.193Z,7.63
2022-10-10T05:56:15.511Z,7.62
2022-10-10T05:58:18.746Z,7.61
2022-10-10T06:00:22.327Z,7.59
2022-10-10T06:02:25.685Z,7.57
2022-10-10T06:04:28.902Z,7.55
2022-10-10T06:06:32.330Z,7.54
2022-10-10T06:08:37.351Z,7.53
2022-10-10T06:10:42.810Z,7.51
2022-10-10T06:12:46.170Z,7.50
2022-10-10T06:14:49.645Z,7.48
2022-10-10T06:16:52.837Z,7.49
2022-10-10T06:18:57.850Z,7.49
2022-10-10T06:21:03.199Z,7.50
2022-10-10T06:23:07.881Z,7.50
2022-10-10T06:25:35.335Z,7.50
2022-10-10T06:27:35.753Z,7.49
2022-10-10T06:29:39.307Z,7.48
2022-10-10T06:31:42.643Z,7.49
2022-10-10T06:33:48.092Z,7.46
2022-10-10T06:35:51.430Z,7.45
2022-10-10T06:37:54.611Z,7.44
2022-10-10T06:39:57.809Z,7.44
2022-10-10T06:42:02.505Z,7.42
2022-10-10T06:44:05.702Z,7.41
2022-10-10T06:46:09.766Z,7.41
2022-10-10T06:48:14.693Z,7.43
2022-10-10T06:50:18.359Z,7.43
2022-10-10T06:52:21.580Z,7.44
2022-10-10T06:54:24.852Z,7.43
2022-10-10T06:56:28.629Z,7.43
2022-10-10T06:58:34.619Z,7.43
2022-10-10T07:00:37.852Z,7.44
2022-10-10T07:02:42.710Z,7.46
2022-10-10T07:04:45.893Z,7.48
2022-10-10T07:06:49.184Z,7.50
2022-10-10T07:08:53.006Z,7.52
2022-10-10T07:10:57.002Z,7.52
2022-10-10T07:13:00.252Z,7.55
2022-10-10T07:15:05.359Z,7.58
2022-10-10T07:17:08.986Z,7.62
2022-10-10T07:19:12.335Z,7.65
2022-10-10T07:21:15.537Z,7.63
2022-10-10T07:23:19.097Z,7.66
2022-10-10T07:25:22.697Z,7.67
2022-10-10T07:27:26.055Z,7.70
2022-10-10T07:29:30.592Z,7.73
2022-10-10T07:31:35.396Z,7.75
2022-10-10T07:33:40.700Z,7.78
2022-10-10T07:35:44.463Z,7.81
2022-10-10T07:37:48.146Z,7.82
2022-10-10T07:39:53.611Z,7.87
2022-10-10T07:41:57.226Z,7.88
2022-10-10T07:44:00.840Z,7.92
2022-10-10T07:46:06.983Z,7.94
2022-10-10T07:48:14.943Z,7.98
2022-10-10T07:50:18.574Z,8.00
2022-10-10T07:52:22.215Z,8.02
2022-10-10T07:54:25.723Z,8.05
2022-10-10T07:56:29.344Z,8.06
2022-10-10T07:58:33.036Z,8.10
2022-10-10T08:00:37.726Z,8.11
2022-10-10T08:02:41.344Z,8.14
2022-10-10T08:04:46.518Z,8.15
2022-10-10T08:06:50.117Z,8.17
2022-10-10T08:08:53.513Z,8.19
2022-10-10T08:10:58.262Z,8.22
2022-10-10T08:13:02.295Z,8.24
2022-10-10T08:15:07.617Z,8.28
2022-10-10T08:17:11.219Z,8.33
2022-10-10T08:19:15.022Z,8.40
2022-10-10T08:21:20.737Z,8.48
2022-10-10T08:23:24.459Z,8.57
2022-10-10T08:25:28.163Z,8.67
2022-10-10T08:27:31.816Z,8.75
2022-10-10T08:29:35.404Z,8.85
2022-10-10T08:31:38.993Z,8.93
2022-10-10T08:33:44.225Z,9.02
2022-10-10T08:35:48.226Z,9.07
2022-10-10T08:37:53.585Z,9.11
2022-10-10T08:39:57.861Z,9.15
2022-10-10T08:42:03.701Z,9.23
2022-10-10T08:44:14.802Z,9.39
2022-10-10T08:46:23.495Z,9.51
2022-10-10T08:48:32.507Z,9.63
2022-10-10T08:50:41.976Z,9.73
2022-10-10T08:52:51.722Z,9.80
2022-10-10T08:54:58.983Z,9.89
2022-10-10T08:57:06.913Z,10.05
2022-10-10T08:59:18.040Z,10.16
2022-10-10T09:01:28.662Z,10.30
2022-10-10T09:03:39.197Z,10.39
2022-10-10T09:05:54.918Z,10.49
2022-10-10T09:08:21.221Z,10.59
2022-10-10T09:10:37.028Z,10.73
2022-10-10T09:12:49.632Z,10.83
2022-10-10T09:15:02.675Z,10.89
2022-10-10T09:17:14.724Z,10.94
2022-10-10T09:19:30.177Z,11.02
2022-10-10T09:21:36.864Z,11.07
2022-10-10T09:23:45.962Z,11.03
2022-10-10T09:25:57.606Z,11.09
2022-10-10T09:28:07.043Z,11.13
2022-10-10T09:30:19.030Z,11.14
2022-10-10T09:32:27.091Z,11.21
2022-10-10T09:34:37.908Z,11.27
2022-10-10T09:36:42.846Z,11.31
2022-10-10T09:38:51.975Z,11.33
2022-10-10T09:41:01.946Z,11.42
2022-10-10T09:43:15.479Z,11.42
2022-10-10T09:45:21.396Z,11.41
2022-10-10T09:47:25.886Z,11.44
2022-10-10T09:49:31.302Z,11.52
2022-10-10T09:51:36.106Z,11.62
2022-10-10T09:53:39.726Z,11.68
2022-10-10T09:55:44.503Z,11.77
2022-10-10T09:57:51.959Z,11.84
2022-10-10T09:59:55.723Z,11.96
2022-10-10T10:02:04.494Z,12.05
2022-10-10T10:04:27.850Z,12.12
2022-10-10T10:06:33.157Z,12.12
2022-10-10T10:08:38.623Z,12.12
2022-10-10T10:10:42.332Z,12.23
2022-10-10T10:12:47.126Z,12.31
2022-10-10T10:14:54.732Z,12.28
2022-10-10T10:17:11.436Z,12.28
2022-10-10T10:19:31.673Z,12.33
2022-10-10T10:21:51.632Z,12.39
2022-10-10T10:24:01.142Z,12.40
2022-10-10T10:26:06.938Z,12.42
2022-10-10T10:28:21.008Z,12.46
2022-10-10T10:30:27.210Z,12.45
2022-10-10T10:32:42.690Z,12.48
2022-10-10T10:35:07.751Z,12.53
2022-10-10T10:37:20.369Z,12.52
2022-10-10T10:39:42.667Z,12.52
2022-10-10T10:41:55.324Z,12.51
2022-10-10T10:44:18.770Z,12.52
2022-10-10T10:46:34.129Z,12.58
2022-10-10T10:48:45.526Z,12.63
2022-10-10T10:50:55.801Z,12.66
2022-10-10T10:53:05.788Z,12.68
2022-10-10T10:55:18.824Z,12.68
2022-10-10T10:57:40.815Z,12.73
2022-10-10T11:00:17.193Z,12.79
2022-10-10T11:02:56.112Z,12.85
2022-10-10T11:05:31.085Z,12.85
2022-10-10T11:07:50.568Z,12.88
2022-10-10T11:10:00.033Z,12.89
2022-10-10T11:12:15.279Z,12.88
2022-10-10T11:14:37.012Z,12.85
2022-10-10T11:16:49.155Z,12.81
2022-10-10T11:19:16.530Z,12.73
2022-10-10T11:21:24.776Z,12.72
2022-10-10T11:23:34.905Z,12.71
2022-10-10T11:25:44.713Z,12.73
2022-10-10T11:27:54.481Z,12.74
2022-10-10T11:30:08.406Z,12.71
2022-10-10T11:34:35.699Z,12.76
2022-10-10T11:36:43.160Z,12.75
2022-10-10T11:38:52.874Z,12.72
2022-10-10T11:40:59.771Z,12.67
2022-10-10T11:43:07.473Z,12.57
2022-10-10T11:45:17.336Z,12.48
2022-10-10T11:47:30.228Z,12.40
2022-10-10T11:49:41.721Z,12.37
2022-10-10T11:52:21.343Z,12.45
2022-10-10T11:54:35.071Z,12.46
2022-10-10T11:56:42.712Z,12.49
2022-10-10T11:58:51.103Z,12.56
2022-10-10T12:00:59.229Z,12.60
2022-10-10T12:03:02.935Z,12.60
2022-10-10T12:05:19.972Z,12.59
2022-10-10T12:07:27.681Z,12.48
2022-10-10T12:09:35.591Z,12.43
2022-10-10T12:11:44.257Z,12.36
2022-10-10T12:13:51.085Z,12.32
2022-10-10T12:15:57.355Z,12.35
2022-10-10T12:18:02.408Z,12.30
2022-10-10T12:20:33.462Z,12.30
2022-10-10T12:22:37.579Z,12.30
2022-10-10T12:25:10.153Z,12.22
2022-10-10T12:27:45.431Z,12.10
2022-10-10T12:30:11.041Z,12.05
2022-10-10T12:32:29.197Z,12.06
2022-10-10T12:34:44.415Z,12.07
2022-10-10T12:37:22.494Z,12.13
2022-10-10T12:39:39.117Z,12.23
2022-10-10T12:41:56.684Z,12.35
2022-10-10T12:44:42.926Z,12.46
2022-10-10T12:46:49.024Z,12.53
2022-10-10T12:49:05.957Z,12.57
2022-10-10T12:51:21.461Z,12.59
2022-10-10T12:53:29.515Z,12.56
2022-10-10T12:55:41.659Z,12.59
2022-10-10T12:57:47.655Z,12.59
2022-10-10T12:59:51.738Z,12.64
2022-10-10T13:01:58.619Z,12.63
2022-10-10T13:04:03.603Z,12.63
2022-10-10T13:06:15.130Z,12.63
2022-10-10T13:08:21.171Z,12.60
2022-10-10T13:10:29.021Z,12.60
2022-10-10T13:12:34.361Z,12.63
2022-10-10T13:14:43.493Z,12.65
2022-10-10T13:16:47.112Z,12.64
2022-10-10T13:18:53.913Z,12.59
2022-10-10T13:20:58.924Z,12.53
2022-10-10T13:23:06.841Z,12.48
2022-10-10T13:25:12.516Z,12.44
2022-10-10T13:27:22.518Z,12.40
2022-10-10T13:29:30.684Z,12.38
2022-10-10T13:31:34.323Z,12.40
2022-10-10T13:33:37.961Z,12.43
2022-10-10T13:35:41.628Z,12.48
2022-10-10T13:37:47.673Z,12.53
2022-10-10T13:39:52.689Z,12.59
2022-10-10T13:41:57.370Z,12.58
2022-10-10T13:44:02.447Z,12.56
2022-10-10T13:46:05.995Z,12.55
2022-10-10T13:48:28.953Z,12.58
2022-10-10T13:50:34.466Z,12.59
2022-10-10T13:52:38.447Z,12.65
2022-10-10T13:54:44.625Z,12.72
2022-10-10T13:56:48.651Z,12.78
2022-10-10T13:58:55.344Z,12.81
2022-10-10T14:01:04.756Z,12.84
2022-10-10T14:03:17.172Z,12.83
2022-10-10T14:05:28.346Z,12.78
2022-10-10T14:07:32.948Z,12.68
2022-10-10T14:09:40.335Z,12.56
2022-10-10T14:11:44.726Z,12.46
2022-10-10T14:13:52.050Z,12.36
2022-10-10T14:15:56.420Z,12.29
2022-10-10T14:18:01.561Z,12.25
2022-10-10T14:20:13.520Z,12.24
2022-10-10T14:22:17.633Z,12.23
2022-10-10T14:24:21.537Z,12.26
2022-10-10T14:26:25.233Z,12.29
2022-10-10T14:28:32.196Z,12.31
2022-10-10T14:30:38.130Z,12.33
2022-10-10T14:32:43.188Z,12.34
2022-10-10T14:34:49.543Z,12.34
2022-10-10T14:36:53.216Z,12.34
2022-10-10T14:38:57.281Z,12.34
2022-10-10T14:41:02.041Z,12.33
2022-10-10T14:43:06.408Z,12.33
2022-10-10T14:45:15.359Z,12.33
2022-10-10T14:47:21.328Z,12.31
2022-10-10T14:49:24.903Z,12.30
2022-10-10T14:51:34.727Z,12.32
2022-10-10T14:53:39.452Z,12.31
2022-10-10T14:55:44.365Z,12.29
2022-10-10T14:57:48.124Z,12.28
2022-10-10T14:59:52.300Z,12.27
2022-10-10T15:01:55.978Z,12.25
2022-10-10T15:03:59.675Z,12.21
2022-10-10T15:06:03.468Z,12.18
2022-10-10T15:08:09.804Z,12.19
2022-10-10T15:12:41.963Z,12.19
2022-10-10T15:14:45.713Z,12.19
2022-10-10T15:16:51.464Z,12.21
2022-10-10T15:18:55.495Z,12.22
2022-10-10T15:21:00.199Z,12.23
2022-10-10T15:23:08.910Z,12.22
2022-10-10T15:25:14.947Z,12.24
2022-10-10T15:27:18.827Z,12.24
2022-10-10T15:29:22.651Z,12.23
2022-10-10T15:31:32.934Z,12.25
2022-10-10T15:33:36.862Z,12.25
2022-10-10T15:36:07.561Z,12.24
2022-10-10T15:38:04.624Z,12.23
2022-10-10T15:40:11.072Z,12.23
2022-10-10T15:42:21.451Z,12.22
2022-10-10T15:44:26.559Z,12.19
2022-10-10T15:46:30.777Z,12.18
2022-10-10T15:48:34.247Z,12.15
2022-10-10T15:50:43.329Z,12.12
2022-10-10T15:52:49.207Z,12.12
2022-10-10T15:54:52.766Z,12.09
2022-10-10T15:56:58.602Z,12.09
2022-10-10T15:59:03.830Z,12.09
2022-10-10T16:01:11.931Z,12.06
2022-10-10T16:03:16.211Z,12.04
2022-10-10T16:05:20.122Z,12.01
2022-10-10T16:07:29.202Z,12.00
2022-10-10T16:09:34.684Z,11.99
2022-10-10T16:11:39.366Z,11.94
2022-10-10T16:13:49.942Z,11.91
2022-10-10T16:16:00.506Z,11.89
2022-10-10T16:18:04.231Z,11.87
2022-10-10T16:20:08.633Z,11.85
2022-10-10T16:22:13.334Z,11.84
2022-10-10T16:24:17.267Z,11.82
2022-10-10T16:26:23.695Z,11.81
2022-10-10T16:28:27.546Z,11.78
2022-10-10T16:30:32.598Z,11.78
2022-10-10T16:32:41.755Z,11.79
2022-10-10T16:34:46.321Z,11.80
2022-10-10T16:36:50.785Z,11.80
2022-10-10T16:38:57.702Z,11.81
2022-10-10T16:41:05.546Z,11.82
2022-10-10T16:43:11.573Z,11.83
2022-10-10T16:45:18.527Z,11.81
2022-10-10T16:47:24.410Z,11.80
2022-10-10T16:49:32.305Z,11.78
2022-10-10T16:51:36.345Z,11.75
2022-10-10T16:53:41.922Z,11.73
2022-10-10T16:55:47.595Z,11.68
2022-10-10T16:57:59.466Z,11.63
2022-10-10T17:00:03.288Z,11.61
2022-10-10T17:02:06.928Z,11.57
2022-10-10T17:04:11.991Z,11.52
2022-10-10T17:06:19.305Z,11.49
2022-10-10T17:08:23.287Z,11.45
2022-10-10T17:10:27.414Z,11.42
2022-10-10T17:12:31.118Z,11.40
2022-10-10T17:14:34.839Z,11.35
2022-10-10T17:17:10.960Z,11.31
2022-10-10T17:19:02.741Z,11.26
2022-10-10T17:21:10.584Z,11.21
2022-10-10T17:23:15.579Z,11.17
2022-10-10T17:25:19.624Z,11.14
2022-10-10T17:27:23.407Z,11.11
2022-10-10T17:29:27.357Z,11.11
2022-10-10T17:31:31.415Z,11.09
2022-10-10T17:33:35.075Z,11.06
2022-10-10T17:35:42.339Z,11.05
2022-10-10T17:37:47.553Z,11.04
2022-10-10T17:39:51.212Z,11.02
2022-10-10T17:41:55.310Z,10.99
2022-10-10T17:43:59.056Z,10.95
2022-10-10T17:46:29.138Z,10.91
2022-10-10T17:48:27.555Z,10.86
2022-10-10T17:50:31.744Z,10.80
2022-10-10T17:52:35.598Z,10.77
2022-10-10T17:54:40.644Z,10.72
2022-10-10T17:56:45.234Z,10.66
2022-10-10T17:58:50.992Z,10.60
2022-10-10T18:01:00.481Z,10.54
2022-10-10T18:03:08.689Z,10.48
2022-10-10T18:05:12.419Z,10.44
2022-10-10T18:07:18.793Z,10.40
2022-10-10T18:09:22.872Z,10.35
2022-10-10T18:11:31.897Z,10.31
2022-10-10T18:13:36.460Z,10.24
2022-10-10T18:15:41.640Z,10.20
2022-10-10T18:17:45.563Z,10.16
2022-10-10T18:19:49.158Z,10.12
2022-10-10T18:21:53.306Z,10.07
2022-10-10T18:23:57.249Z,10.02
2022-10-10T18:26:02.235Z,9.98
2022-10-10T18:28:07.627Z,9.93
2022-10-10T18:30:13.582Z,9.88
2022-10-10T18:32:18.107Z,9.83
2022-10-10T18:34:21.752Z,9.80
2022-10-10T18:36:27.092Z,9.75
2022-10-10T18:38:31.157Z,9.73
2022-10-10T18:40:35.048Z,9.70
2022-10-10T18:42:41.914Z,9.66
2022-10-10T18:44:47.294Z,9.63
2022-10-10T18:46:51.330Z,9.61
2022-10-10T18:48:55.150Z,9.60
2022-10-10T18:51:02.496Z,9.59
2022-10-10T18:53:06.195Z,9.57
2022-10-10T18:55:17.421Z,9.55
2022-10-10T18:57:21.073Z,9.55
2022-10-10T18:59:24.327Z,9.56
2022-10-10T19:01:30.519Z,9.55
2022-10-10T19:03:34.246Z,9.55
2022-10-10T19:05:41.254Z,9.55
2022-10-10T19:07:45.391Z,9.54
2022-10-10T19:09:48.712Z,9.52
2022-10-10T19:11:53.486Z,9.52
2022-10-10T19:13:57.883Z,9.51
2022-10-10T19:16:05.036Z,9.49
2022-10-10T19:18:10.693Z,9.47
2022-10-10T19:20:14.108Z,9.47
2022-10-10T19:22:17.565Z,9.46
2022-10-10T19:24:22.606Z,9.45
2022-10-10T19:26:26.170Z,9.44
2022-10-10T19:28:29.757Z,9.42
2022-10-10T19:30:33.759Z,9.41
2022-10-10T19:32:38.203Z,9.42
2022-10-10T19:34:47.042Z,9.42
2022-10-10T19:36:50.679Z,9.42
2022-10-10T19:38:55.981Z,9.42
2022-10-10T19:40:59.673Z,9.39
2022-10-10T19:43:04.049Z,9.38
2022-10-10T19:45:08.685Z,9.37
2022-10-10T19:47:12.260Z,9.35
2022-10-10T19:49:15.855Z,9.32
2022-10-10T19:51:21.129Z,9.29
2022-10-10T19:53:24.876Z,9.26
2022-10-10T19:55:28.252Z,9.23
2022-10-10T19:57:32.100Z,9.21
2022-10-10T19:59:35.629Z,9.17
2022-10-10T20:01:39.258Z,9.13
2022-10-10T20:03:43.312Z,9.12
2022-10-10T20:05:47.016Z,9.08
2022-10-10T20:07:52.868Z,9.05
2022-10-10T20:09:56.809Z,9.02
2022-10-10T20:12:00.594Z,9.00
2022-10-10T20:14:04.228Z,8.99
2022-10-10T20:16:10.684Z,8.98
2022-10-10T20:18:14.623Z,8.97
2022-10-10T20:20:18.561Z,8.97
2022-10-10T20:22:22.120Z,8.95
2022-10-10T20:24:31.056Z,8.93
2022-10-10T20:26:35.991Z,8.92
2022-10-10T20:28:39.575Z,8.91
2022-10-10T20:30:45.350Z,8.88
2022-10-10T20:32:49.788Z,8.86
2022-10-10T20:34:53.501Z,8.86
2022-10-10T20:36:57.323Z,8.86
2022-10-10T20:39:03.166Z,8.88
2022-10-10T20:41:09.599Z,8.90
2022-10-10T20:43:15.389Z,8.94
2022-10-10T20:45:19.506Z,8.96
2022-10-10T20:47:24.359Z,8.95
2022-10-10T20:49:29.372Z,8.95
2022-10-10T20:51:34.903Z,8.98
2022-10-10T20:53:42.500Z,9.01
2022-10-10T20:55:46.670Z,9.04
2022-10-10T20:57:52.199Z,9.06
2022-10-10T20:59:55.965Z,9.09
2022-10-10T21:02:00.208Z,9.10
2022-10-10T21:04:05.101Z,9.10
2022-10-10T21:06:13.366Z,9.08
2022-10-10T21:08:17.091Z,9.05
2022-10-10T21:10:20.849Z,9.03
2022-10-10T21:12:24.747Z,9.04
2022-10-10T21:14:30.321Z,9.04
2022-10-10T21:16:36.710Z,9.03
2022-10-10T21:18:41.951Z,9.00
2022-10-10T21:20:45.733Z,8.99
2022-10-10T21:22:50.029Z,8.98
2022-10-10T21:24:54.152Z,8.97
2022-10-10T21:26:58.099Z,8.95
2022-10-10T21:29:02.081Z,8.93
2022-10-10T21:31:07.967Z,8.92
2022-10-10T21:33:11.737Z,8.90
2022-10-10T21:35:15.808Z,8.88
2022-10-10T21:37:19.664Z,8.87
2022-10-10T21:39:23.576Z,8.85
2022-10-10T21:41:29.197Z,8.83
2022-10-10T21:43:33.303Z,8.83
2022-10-10T21:45:37.988Z,8.81
2022-10-10T21:47:44.733Z,8.81
2022-10-10T21:49:48.495Z,8.81
2022-10-10T21:51:52.282Z,8.83
2022-10-10T21:53:57.799Z,8.83
2022-10-10T21:56:05.987Z,8.84
2022-10-10T21:58:10.309Z,8.86
2022-10-10T22:00:15.082Z,8.88
2022-10-10T22:02:18.736Z,8.93
2022-10-10T22:04:28.074Z,8.98
2022-10-10T22:06:33.210Z,9.01
2022-10-10T22:08:37.508Z,9.04
2022-10-10T22:10:42.575Z,9.06
2022-10-10T22:12:49.334Z,9.08
2022-10-10T22:14:53.086Z,9.11
2022-10-10T22:16:56.890Z,9.14
2022-10-10T22:19:01.087Z,9.17
2022-10-10T22:21:07.921Z,9.18
2022-10-10T22:23:11.382Z,9.20
2022-10-10T22:25:18.061Z,9.21
2022-10-10T22:27:21.944Z,9.23
2022-10-10T22:29:25.900Z,9.25
2022-10-10T22:31:30.222Z,9.27
2022-10-10T22:33:33.881Z,9.27
2022-10-10T22:35:38.588Z,9.27
2022-10-10T22:37:43.780Z,9.27
2022-10-10T22:39:47.646Z,9.26
2022-10-10T22:41:51.321Z,9.25
2022-10-10T22:43:54.972Z,9.27
2022-10-10T22:45:58.755Z,9.26
2022-10-10T22:48:02.836Z,9.27
2022-10-10T22:50:07.463Z,9.28
2022-10-10T22:52:11.602Z,9.30
2022-10-10T22:54:16.712Z,9.31
2022-10-10T22:56:22.070Z,9.30
2022-10-10T22:58:25.788Z,9.32
2022-10-10T23:00:29.730Z,9.34
2022-10-10T23:02:33.574Z,9.35
2022-10-10T23:04:37.274Z,9.37
2022-10-10T23:06:41.779Z,9.39
2022-10-10T23:08:47.238Z,9.43
2022-10-10T23:10:52.429Z,9.44
2022-10-10T23:12:56.085Z,9.46
2022-10-10T23:14:59.362Z,9.47
2022-10-10T23:17:02.814Z,9.48
2022-10-10T23:19:06.266Z,9.47
2022-10-10T23:21:09.702Z,9.46
2022-10-10T23:23:13.083Z,9.44
2022-10-10T23:25:16.972Z,9.42
2022-10-10T23:27:22.044Z,9.42
2022-10-10T23:29:25.894Z,9.38
2022-10-10T23:31:29.521Z,9.38
2022-10-10T23:33:36.726Z,9.36
2022-10-10T23:35:41.364Z,9.38
2022-10-10T23:37:45.005Z,9.38
2022-10-10T23:39:48.673Z,9.39
2022-10-10T23:41:52.423Z,9.38
2022-10-10T23:43:57.551Z,9.37
2022-10-10T23:46:01.364Z,9.37
2022-10-10T23:48:05.559Z,9.38
2022-10-10T23:50:10.130Z,9.39
2022-10-10T23:52:13.868Z,9.38
2022-10-10T23:54:17.443Z,9.39
2022-10-10T23:56:21.042Z,9.40
2022-10-10T23:58:24.626Z,9.42
